Time;durP1;ratioP1;P1;durP2;ratioP2;P2;SDS_P1;SDS_P2;PMS_P1;PMS_P2;Temp;Humidity;BMP_temperature;BMP_pressure;BME280_temperature;BME280_humidity;BME280_pressure;Samples;Min_cycle;Max_cycle;Signal;HPM_P1;HPM_P2
2021/11/02 00:00:40;;;;;;;1.20;1.10;;;7.60;99.90;;;;;;5029258;28;20441;-67
2021/11/02 00:03:07;;;;;;;1.10;1.08;;;7.50;99.90;;;;;;5028490;28;20022;-68
2021/11/02 00:05:34;;;;;;;1.10;1.10;;;7.50;99.90;;;;;;5024344;28;21482;-68
2021/11/02 00:08:00;;;;;;;1.70;1.60;;;7.40;99.90;;;;;;5029461;28;20021;-68
2021/11/02 00:10:26;;;;;;;6.53;1.60;;;7.40;99.90;;;;;;5018785;28;20025;-68
2021/11/02 00:12:51;;;;;;;2.00;1.45;;;7.40;99.90;;;;;;5030569;28;20064;-67
2021/11/02 00:15:22;;;;;;;1.65;1.55;;;7.40;99.90;;;;;;5025001;28;20037;-68
2021/11/02 00:17:50;;;;;;;3.28;1.55;;;7.40;99.90;;;;;;5026192;28;20116;-68
2021/11/02 00:20:16;;;;;;;2.28;1.77;;;7.40;99.90;;;;;;5020469;28;20088;-68
2021/11/02 00:22:51;;;;;;;1.67;1.58;;;7.30;99.90;;;;;;5032570;28;20468;-67
2021/11/02 00:25:17;;;;;;;1.65;1.55;;;7.30;99.90;;;;;;5024266;28;20084;-68
2021/11/02 00:27:43;;;;;;;3.13;1.60;;;7.10;99.90;;;;;;5028335;28;20035;-67
2021/11/02 00:30:13;;;;;;;1.45;1.30;;;7.10;99.90;;;;;;5022154;28;20022;-67
2021/11/02 00:32:39;;;;;;;1.52;1.42;;;7.00;99.90;;;;;;5047323;28;20040;-68
2021/11/02 00:35:06;;;;;;;1.55;1.50;;;7.00;99.90;;;;;;5034252;28;20034;-68
2021/11/02 00:37:32;;;;;;;2.22;2.05;;;6.90;99.90;;;;;;5029355;28;20044;-67
2021/11/02 00:39:58;;;;;;;1.60;1.50;;;6.90;99.90;;;;;;5023810;28;20045;-69
2021/11/02 00:42:38;;;;;;;1.70;1.60;;;6.90;99.90;;;;;;5023857;28;20037;-67
2021/11/02 00:45:10;;;;;;;1.80;1.70;;;6.90;99.90;;;;;;5022356;28;20053;-67
2021/11/02 00:47:36;;;;;;;2.30;2.10;;;6.80;99.90;;;;;;5023044;28;20431;-67
2021/11/02 00:50:10;;;;;;;24.33;17.60;;;6.80;99.90;;;;;;5032692;28;20029;-67
2021/11/02 00:52:40;;;;;;;4.35;4.00;;;6.70;99.90;;;;;;5017351;28;20026;-68
2021/11/02 00:55:07;;;;;;;9.38;8.32;;;6.70;99.90;;;;;;5017278;28;22805;-68
2021/11/02 00:57:34;;;;;;;8.10;7.40;;;6.60;99.90;;;;;;5031157;28;20632;-68
2021/11/02 01:00:00;;;;;;;2.20;1.92;;;6.60;99.90;;;;;;5026341;28;20037;-68
2021/11/02 01:02:26;;;;;;;3.67;2.50;;;6.60;99.90;;;;;;5032441;28;20091;-68
2021/11/02 01:04:52;;;;;;;2.85;2.58;;;6.60;99.90;;;;;;5024092;28;20393;-67
2021/11/02 01:07:18;;;;;;;3.40;3.20;;;6.60;99.90;;;;;;5024446;28;20760;-67
2021/11/02 01:09:44;;;;;;;2.30;2.00;;;6.60;99.90;;;;;;5021704;28;20397;-68
2021/11/02 01:12:11;;;;;;;2.55;2.15;;;6.50;99.90;;;;;;5019613;28;20040;-68
2021/11/02 01:14:37;;;;;;;2.85;2.17;;;6.50;99.90;;;;;;5018361;28;20202;-68
2021/11/02 01:17:03;;;;;;;3.85;1.70;;;6.50;99.90;;;;;;5022322;28;20100;-68
2021/11/02 01:19:29;;;;;;;1.83;1.73;;;6.40;99.90;;;;;;5025113;28;20029;-69
2021/11/02 01:21:55;;;;;;;1.60;1.50;;;6.20;99.90;;;;;;5019586;28;20037;-69
2021/11/02 01:24:21;;;;;;;1.70;1.60;;;6.00;99.90;;;;;;5013846;28;20052;-68
2021/11/02 01:26:47;;;;;;;1.70;1.60;;;6.00;99.90;;;;;;5017901;28;20033;-68
2021/11/02 01:29:15;;;;;;;1.33;1.23;;;5.90;99.90;;;;;;5017534;28;20129;-69
2021/11/02 01:31:44;;;;;;;1.52;1.42;;;5.90;99.90;;;;;;5015344;28;20477;-69
2021/11/02 01:34:10;;;;;;;1.60;1.50;;;5.90;99.90;;;;;;5016339;28;20064;-68
2021/11/02 01:36:36;;;;;;;3.28;2.00;;;5.90;99.90;;;;;;5015346;28;20080;-69
2021/11/02 01:39:04;;;;;;;3.45;2.70;;;5.90;99.90;;;;;;5015088;28;20066;-68
2021/11/02 01:41:29;;;;;;;4.37;3.23;;;5.90;99.90;;;;;;5010369;28;20040;-69
2021/11/02 01:43:57;;;;;;;3.03;2.80;;;5.90;99.90;;;;;;5013869;28;20034;-69
2021/11/02 01:46:24;;;;;;;2.80;2.60;;;5.90;99.90;;;;;;5021244;28;20026;-68
2021/11/02 01:48:52;;;;;;;3.95;3.03;;;5.90;99.90;;;;;;5021030;28;20025;-68
2021/11/02 01:51:18;;;;;;;2.95;2.63;;;5.90;99.90;;;;;;5045098;28;20030;-69
2021/11/02 01:53:44;;;;;;;2.92;2.30;;;5.80;99.90;;;;;;5020299;28;20030;-69
2021/11/02 01:56:12;;;;;;;4.50;2.33;;;5.70;99.90;;;;;;5018299;28;20044;-68
2021/11/02 01:58:38;;;;;;;2.60;1.80;;;5.70;99.90;;;;;;5034651;28;20811;-69
2021/11/02 02:01:06;;;;;;;2.65;2.40;;;5.70;99.90;;;;;;5025741;28;20071;-69
2021/11/02 02:03:50;;;;;;;2.53;2.22;;;5.70;99.90;;;;;;5007391;28;20033;-68
2021/11/02 02:06:35;;;;;;;2.05;1.85;;;5.70;99.90;;;;;;5018257;28;20029;-69
2021/11/02 02:09:06;;;;;;;2.00;1.85;;;5.60;99.90;;;;;;5031161;28;20056;-69
2021/11/02 02:11:54;;;;;;;2.55;2.28;;;5.60;99.90;;;;;;5016751;28;20021;-69
2021/11/02 02:14:26;;;;;;;;;;;5.60;99.90;;;;;;5025803;28;20026;-69
2021/11/02 02:16:53;;;;;;;2.75;2.15;;;5.60;99.90;;;;;;5018784;28;19917;-69
2021/11/02 02:19:31;;;;;;;2.13;1.90;;;5.50;99.90;;;;;;5018248;28;20037;-68
2021/11/02 02:22:09;;;;;;;6.80;1.88;;;5.50;99.90;;;;;;5027953;28;20374;-68
2021/11/02 02:24:53;;;;;;;6.72;2.00;;;5.40;99.90;;;;;;5023860;28;20094;-69
2021/11/02 02:27:56;;;;;;;36.38;3.65;;;5.30;99.90;;;;;;5016415;28;20121;-68
2021/11/02 02:30:22;;;;;;;7.40;2.67;;;5.20;99.90;;;;;;5039646;28;20147;-68
2021/11/02 02:32:52;;;;;;;111.45;8.40;;;5.00;99.90;;;;;;5001041;28;20056;-68
2021/11/02 02:35:19;;;;;;;30.92;3.25;;;4.90;99.90;;;;;;4996039;28;20045;-68
2021/11/02 02:37:46;;;;;;;49.67;4.20;;;4.80;99.90;;;;;;5002741;28;20026;-68
2021/11/02 02:40:13;;;;;;;62.47;4.43;;;4.80;99.90;;;;;;4998366;28;20034;-69
2021/11/02 02:42:41;;;;;;;21.45;2.58;;;4.80;99.90;;;;;;5000410;28;21253;-68
2021/11/02 02:45:08;;;;;;;29.77;3.33;;;4.80;99.90;;;;;;4997116;28;20038;-69
2021/11/02 02:47:36;;;;;;;1.73;1.50;;;4.90;99.90;;;;;;5000510;28;20068;-69
2021/11/02 02:50:04;;;;;;;4.03;1.95;;;4.90;99.90;;;;;;5000755;28;20427;-69
2021/11/02 02:52:30;;;;;;;2.92;1.42;;;4.90;99.90;;;;;;4997127;28;20029;-69
2021/11/02 02:54:58;;;;;;;1.70;1.60;;;4.80;99.90;;;;;;5001939;28;20148;-69
2021/11/02 02:57:25;;;;;;;1.60;1.50;;;4.80;99.90;;;;;;5007751;28;20033;-69
2021/11/02 02:59:53;;;;;;;1.50;1.40;;;4.80;99.90;;;;;;5005985;28;20088;-68
2021/11/02 03:02:23;;;;;;;1.83;1.70;;;4.70;99.90;;;;;;5004330;28;20406;-69
2021/11/02 03:04:53;;;;;;;1.30;1.20;;;4.70;99.90;;;;;;5008122;28;20028;-68
2021/11/02 03:07:21;;;;;;;2.00;1.90;;;4.70;99.90;;;;;;5008350;28;20029;-68
2021/11/02 03:09:47;;;;;;;6.50;2.50;;;4.70;99.90;;;;;;5005167;28;20402;-68
2021/11/02 03:12:25;;;;;;;2.47;1.60;;;4.70;99.90;;;;;;5004921;28;20014;-69
2021/11/02 03:17:25;;;;;;;2.42;2.08;;;4.80;99.90;;;;;;5003210;28;20061;-68
2021/11/02 03:56:07;;;;;;;3.95;2.50;;;5.00;99.90;;;;;;5021740;28;20048;-67
2021/11/02 03:58:44;;;;;;;2.83;2.22;;;5.00;99.90;;;;;;5019973;28;20021;-67
2021/11/02 05:06:50;;;;;;;3.72;3.00;;;5.60;99.90;;;;;;5018429;28;20063;-68
2021/11/02 05:07:02;;;;;;;3.15;2.53;;;5.60;99.90;;;;;;5010755;28;20036;-68
2021/11/02 05:12:34;;;;;;;4.28;2.72;;;5.70;99.90;;;;;;5019969;28;20061;-68
2021/11/02 05:50:46;;;;;;;4.07;2.38;;;5.80;99.90;;;;;;5015640;28;20475;-68
2021/11/02 06:03:35;;;;;;;3.90;3.05;;;5.70;99.90;;;;;;5019654;28;20029;-67
2021/11/02 06:23:22;;;;;;;4.30;3.28;;;5.70;99.90;;;;;;5025338;28;20036;-67
2021/11/02 06:28:56;;;;;;;4.10;2.65;;;5.40;99.90;;;;;;5009337;28;20087;-68
2021/11/02 06:31:28;;;;;;;4.75;3.08;;;5.40;99.90;;;;;;5018140;28;20522;-68
2021/11/02 06:34:16;;;;;;;3.53;2.80;;;5.40;99.90;;;;;;5011402;28;20056;-68
2021/11/02 06:42:12;;;;;;;3.15;2.30;;;5.40;99.90;;;;;;5020218;28;20032;-67
2021/11/02 07:18:33;;;;;;;4.10;2.28;;;5.00;99.90;;;;;;5024036;28;20091;-68
2021/11/02 07:23:49;;;;;;;3.67;2.95;;;4.90;99.90;;;;;;5022304;28;20165;-68
2021/11/02 08:46:16;;;;;;;3.25;2.22;;;7.00;99.90;;;;;;5023785;28;20071;-68
2021/11/02 08:48:43;;;;;;;2.63;2.13;;;7.00;99.90;;;;;;5023180;28;20034;-68
2021/11/02 08:51:09;;;;;;;3.65;2.30;;;7.10;99.90;;;;;;5030965;28;20107;-68
2021/11/02 08:53:36;;;;;;;3.67;2.20;;;7.30;99.90;;;;;;5019874;28;20108;-69
2021/11/02 08:56:02;;;;;;;2.38;2.17;;;7.30;99.90;;;;;;5031654;28;20021;-68
2021/11/02 08:58:30;;;;;;;4.00;2.67;;;7.40;99.90;;;;;;5030308;28;20033;-68
2021/11/02 09:01:03;;;;;;;3.03;2.05;;;7.50;99.90;;;;;;5036272;28;20080;-68
2021/11/02 09:03:33;;;;;;;2.88;1.90;;;7.50;99.90;;;;;;5018825;28;20478;-68
2021/11/02 09:06:08;;;;;;;2.55;2.33;;;7.60;99.90;;;;;;5015930;28;20471;-68
2021/11/02 09:08:54;;;;;;;4.38;2.10;;;7.60;99.90;;;;;;5013157;28;20079;-69
2021/11/02 09:11:22;;;;;;;3.53;2.45;;;7.60;99.90;;;;;;5035072;28;20026;-68
2021/11/02 09:13:50;;;;;;;2.90;1.83;;;7.70;99.90;;;;;;5019830;28;20853;-68
2021/11/02 09:16:16;;;;;;;;;;;7.70;99.90;;;;;;5044286;28;20076;-68
2021/11/02 09:18:43;;;;;;;;;;;7.70;99.90;;;;;;5030106;28;19908;-68
2021/11/02 09:21:08;;;;;;;;;;;7.80;99.90;;;;;;5021449;28;19934;-68
2021/11/02 09:23:34;;;;;;;;;;;7.80;99.90;;;;;;5017956;28;19927;-69
2021/11/02 09:26:01;;;;;;;;;;;7.90;99.90;;;;;;5024332;28;19971;-68
2021/11/02 09:28:28;;;;;;;;;;;7.90;99.90;;;;;;5047843;28;19914;-68
2021/11/02 09:30:54;;;;;;;;;;;8.00;99.90;;;;;;5014867;28;19924;-68
2021/11/02 09:33:19;;;;;;;;;;;8.00;99.90;;;;;;5002111;28;19913;-68
2021/11/02 09:35:49;;;;;;;;;;;8.10;99.90;;;;;;5005222;28;19927;-68
2021/11/02 09:38:23;;;;;;;;;;;8.10;99.90;;;;;;5002455;28;20838;-69
2021/11/02 09:41:00;;;;;;;;;;;8.20;99.90;;;;;;5004661;28;19913;-68
2021/11/02 09:43:39;;;;;;;;;;;8.20;99.90;;;;;;5029412;28;19956;-68
2021/11/02 09:46:20;;;;;;;;;;;8.30;99.90;;;;;;5003813;28;20421;-68
2021/11/02 09:48:51;;;;;;;;;;;8.30;99.90;;;;;;5002148;28;19917;-68
2021/11/02 09:51:32;;;;;;;;;;;8.30;99.90;;;;;;5011471;28;20443;-68
2021/11/02 09:54:17;;;;;;;;;;;8.40;99.90;;;;;;5002630;28;19912;-68
2021/11/02 09:57:05;;;;;;;;;;;8.30;99.90;;;;;;5003119;28;20951;-69
2021/11/02 09:59:39;;;;;;;;;;;8.30;99.90;;;;;;5014809;28;20375;-68
2021/11/02 10:02:11;;;;;;;;;;;8.30;99.90;;;;;;5005658;28;19944;-68
2021/11/02 10:04:55;;;;;;;;;;;8.30;99.90;;;;;;5007357;28;20021;-68
2021/11/02 10:07:29;;;;;;;;;;;8.30;99.90;;;;;;5019569;28;19913;-68
2021/11/02 10:09:55;;;;;;;;;;;8.30;99.90;;;;;;5019236;28;20390;-68
2021/11/02 10:12:22;;;;;;;;;;;8.30;99.90;;;;;;5010329;28;19916;-68
2021/11/02 10:15:09;;;;;;;;;;;8.40;99.90;;;;;;5004836;28;20019;-68
2021/11/02 10:17:39;;;;;;;;;;;8.40;99.90;;;;;;4995613;28;19955;-69
2021/11/02 10:20:07;;;;;;;;;;;8.40;99.90;;;;;;5004773;28;19924;-68
2021/11/02 10:22:48;;;;;;;;;;;8.40;99.90;;;;;;5039897;28;19914;-68
2021/11/02 10:25:13;;;;;;;;;;;8.40;99.90;;;;;;5005199;28;20029;-68
2021/11/02 10:27:43;;;;;;;;;;;8.50;99.90;;;;;;5017128;28;19925;-68
2021/11/02 10:30:28;;;;;;;;;;;8.60;99.90;;;;;;5026452;28;19957;-68
2021/11/02 10:32:56;;;;;;;;;;;8.60;99.90;;;;;;5040838;28;19920;-69
2021/11/02 10:35:42;;;;;;;;;;;8.80;99.90;;;;;;5023896;28;19919;-68
2021/11/02 10:38:12;;;;;;;;;;;8.90;99.90;;;;;;5043079;28;20243;-69
2021/11/02 10:40:49;;;;;;;;;;;8.90;99.90;;;;;;5020447;28;19913;-68
2021/11/02 10:43:16;;;;;;;;;;;9.00;99.90;;;;;;5020861;28;20011;-69
2021/11/02 10:45:52;;;;;;;;;;;9.00;99.90;;;;;;5031147;28;20453;-68
2021/11/02 10:48:19;;;;;;;;;;;8.90;99.90;;;;;;5020199;28;19967;-66
2021/11/02 10:50:46;;;;;;;;;;;9.00;99.90;;;;;;5035186;28;19913;-67
2021/11/02 10:53:15;;;;;;;;;;;9.00;99.90;;;;;;5027986;28;19935;-67
2021/11/02 10:55:41;;;;;;;;;;;9.00;99.90;;;;;;5017850;28;19913;-68
2021/11/02 10:58:25;;;;;;;;;;;8.90;98.40;;;;;;5032893;28;20378;-67
2021/11/02 11:00:50;;;;;;;;;;;8.90;97.70;;;;;;5033875;28;19943;-67
2021/11/02 11:03:17;;;;;;;;;;;8.80;99.90;;;;;;5018150;28;19912;-67
2021/11/02 11:05:45;;;;;;;;;;;8.80;99.90;;;;;;5022000;28;20400;-68
2021/11/02 11:08:13;;;;;;;;;;;8.80;98.20;;;;;;5029260;28;20597;-68
2021/11/02 11:10:38;;;;;;;;;;;8.70;99.90;;;;;;5012246;28;19940;-67
2021/11/02 11:13:07;;;;;;;;;;;8.70;99.90;;;;;;5019755;28;19913;-68
2021/11/02 11:15:36;;;;;;;;;;;8.70;99.90;;;;;;5020665;28;19917;-69
2021/11/02 11:18:03;;;;;;;;;;;8.70;99.90;;;;;;5021060;28;19913;-68
2021/11/02 11:20:29;;;;;;;;;;;8.80;99.90;;;;;;5030241;28;19913;-68
2021/11/02 11:22:57;;;;;;;;;;;8.80;99.90;;;;;;5025380;28;19913;-68
2021/11/02 11:25:34;;;;;;;;;;;8.70;99.90;;;;;;5029332;28;19921;-68
2021/11/02 11:28:01;;;;;;;;;;;8.80;99.90;;;;;;5031416;28;20388;-68
2021/11/02 11:30:27;;;;;;;;;;;8.80;99.90;;;;;;5029948;28;19918;-68
2021/11/02 11:32:53;;;;;;;;;;;8.70;99.90;;;;;;5042119;28;20011;-68
2021/11/02 11:35:19;;;;;;;;;;;8.70;99.90;;;;;;5039842;28;19909;-68
2021/11/02 11:37:45;;;;;;;;;;;8.70;99.90;;;;;;5031802;28;19924;-68
2021/11/02 11:40:12;;;;;;;;;;;8.70;99.90;;;;;;5026349;28;19966;-68
2021/11/02 11:42:38;;;;;;;;;;;8.70;99.90;;;;;;5031270;28;19917;-68
2021/11/02 11:45:14;;;;;;;;;;;8.80;99.90;;;;;;5028334;28;19968;-68
2021/11/02 11:47:40;;;;;;;;;;;8.80;99.90;;;;;;5035924;28;19909;-67
2021/11/02 11:50:17;;;;;;;;;;;8.80;99.90;;;;;;5025113;28;19917;-67
2021/11/02 11:52:43;;;;;;;;;;;8.80;99.90;;;;;;5031930;28;19932;-67
2021/11/02 11:55:09;;;;;;;;;;;8.80;99.90;;;;;;5028850;28;19909;-68
2021/11/02 11:57:36;;;;;;;;;;;8.80;99.90;;;;;;5058982;28;19909;-69
2021/11/02 12:00:13;;;;;;;;;;;8.90;99.90;;;;;;5028106;28;19913;-68
2021/11/02 12:03:00;;;;;;;;;;;8.90;99.90;;;;;;5037219;28;19921;-68
2021/11/02 12:05:26;;;;;;;;;;;8.90;99.20;;;;;;5034847;28;19927;-68
2021/11/02 12:08:04;;;;;;;;;;;8.90;99.90;;;;;;5031031;28;19913;-68
2021/11/02 12:10:30;;;;;;;;;;;9.00;98.30;;;;;;5028558;28;19991;-68
2021/11/02 12:12:56;;;;;;;;;;;8.90;99.00;;;;;;5032956;28;19917;-68
2021/11/02 12:15:22;;;;;;;;;;;8.90;97.60;;;;;;5027628;28;19916;-68
2021/11/02 12:17:49;;;;;;;;;;;8.90;98.90;;;;;;5037228;28;19913;-68
2021/11/02 12:20:16;;;;;;;;;;;8.90;98.40;;;;;;5032517;28;19913;-67
2021/11/02 12:22:52;;;;;;;;;;;8.90;98.70;;;;;;5047879;28;19912;-68
2021/11/02 12:25:20;;;;;;;;;;;8.80;99.10;;;;;;5034841;28;19932;-68
2021/11/02 12:27:46;;;;;;;;;;;8.80;98.80;;;;;;5028981;28;19951;-68
2021/11/02 12:30:13;;;;;;;;;;;8.80;99.30;;;;;;5022650;28;20305;-68
2021/11/02 12:32:46;;;;;;;;;;;8.80;99.20;;;;;;5034921;28;19908;-68
2021/11/02 12:35:14;;;;;;;;;;;8.90;99.60;;;;;;5033302;28;19920;-68
2021/11/02 12:37:50;;;;;;;;;;;8.90;98.90;;;;;;5036134;28;19963;-67
2021/11/02 12:40:17;;;;;;;;;;;9.00;97.80;;;;;;5032681;28;19944;-67
2021/11/02 12:42:44;;;;;;;;;;;8.90;97.60;;;;;;5032310;28;19986;-69
2021/11/02 12:45:10;;;;;;;;;;;8.90;97.20;;;;;;5038481;28;19917;-67
2021/11/02 12:47:36;;;;;;;;;;;8.90;97.90;;;;;;5031598;28;19915;-68
2021/11/02 12:50:02;;;;;;;;;;;8.90;96.90;;;;;;5026158;28;20000;-69
2021/11/02 12:52:29;;;;;;;;;;;8.90;98.20;;;;;;5035695;28;19999;-68
2021/11/02 12:54:59;;;;;;;;;;;9.00;97.00;;;;;;5023400;28;20362;-69
2021/11/02 12:57:33;;;;;;;;;;;9.00;96.60;;;;;;5041417;28;19913;-68
2021/11/02 12:59:59;;;;;;;;;;;9.00;96.80;;;;;;5036700;28;20365;-69
2021/11/02 13:02:32;;;;;;;;;;;9.00;95.90;;;;;;5033836;28;20010;-68
2021/11/02 13:04:59;;;;;;;;;;;9.00;97.10;;;;;;5031852;28;19916;-68
2021/11/02 13:07:26;;;;;;;;;;;9.00;96.90;;;;;;5024928;28;20293;-69
2021/11/02 13:09:52;;;;;;;;;;;9.10;97.60;;;;;;5023135;28;19940;-68
2021/11/02 13:12:23;;;;;;;;;;;9.10;96.80;;;;;;5031417;28;19947;-68
2021/11/02 13:14:49;;;;;;;;;;;9.20;97.20;;;;;;5026858;28;19920;-68
2021/11/02 13:17:20;;;;;;;;;;;9.20;96.80;;;;;;5036221;28;19909;-69
2021/11/02 13:19:50;;;;;;;;;;;9.30;96.50;;;;;;5040751;28;20383;-68
2021/11/02 13:22:22;;;;;;;;;;;9.40;96.80;;;;;;5030081;28;19908;-68
2021/11/02 13:25:03;;;;;;;;;;;9.50;96.10;;;;;;5019863;28;19923;-68
2021/11/02 13:27:39;;;;;;;;;;;9.60;96.50;;;;;;5028610;28;19913;-69
2021/11/02 13:30:40;;;;;;;;;;;9.70;95.20;;;;;;5023937;28;19917;-68
2021/11/02 13:33:23;;;;;;;;;;;9.70;95.10;;;;;;5002513;28;19921;-69
2021/11/02 13:35:54;;;;;;;;;;;9.80;95.30;;;;;;5026856;28;19956;-68
2021/11/02 13:38:21;;;;;;;;;;;9.80;94.20;;;;;;5030114;28;19942;-68
2021/11/02 13:40:46;;;;;;;;;;;9.80;94.00;;;;;;5025827;28;19909;-68
2021/11/02 13:43:22;;;;;;;;;;;9.80;93.00;;;;;;5024903;28;19963;-68
2021/11/02 13:45:48;;;;;;;;;;;9.80;92.70;;;;;;5025155;28;19927;-70
2021/11/02 13:48:13;;;;;;;;;;;9.90;92.90;;;;;;5029240;28;19912;-69
2021/11/02 13:50:39;;;;;;;;;;;9.90;92.80;;;;;;5032663;28;19943;-68
2021/11/02 13:53:05;;;;;;;;;;;9.90;92.30;;;;;;5025869;28;20638;-68
2021/11/02 13:55:30;;;;;;;;;;;9.80;91.50;;;;;;5032649;28;19912;-69
2021/11/02 13:57:57;;;;;;;;;;;9.70;92.20;;;;;;5026337;28;19916;-69
2021/11/02 14:00:23;;;;;;;;;;;9.70;91.50;;;;;;5024672;28;19908;-68
2021/11/02 14:02:48;;;;;;;;;;;9.80;91.30;;;;;;5028555;28;20404;-68
2021/11/02 14:05:14;;;;;;;;;;;9.80;90.90;;;;;;5027359;28;19913;-69
2021/11/02 14:07:42;;;;;;;;;;;9.90;91.50;;;;;;5026080;28;19909;-68
2021/11/02 14:10:09;;;;;;;;;;;9.90;92.60;;;;;;5017244;28;19964;-68
2021/11/02 14:12:52;;;;;;;;;;;10.00;92.40;;;;;;5030714;28;20011;-68
2021/11/02 14:15:21;;;;;;;;;;;10.10;92.80;;;;;;5043364;28;21147;-68
2021/11/02 14:17:56;;;;;;;;;;;10.50;92.00;;;;;;5031580;28;19921;-69
2021/11/02 14:20:40;;;;;;;;;;;11.00;89.00;;;;;;5026114;28;19913;-67
2021/11/02 14:23:07;;;;;;;;;;;11.30;83.20;;;;;;5035157;28;19974;-68
2021/11/02 14:25:34;;;;;;;;;;;11.50;82.20;;;;;;5034728;28;19923;-68
2021/11/02 14:28:00;;;;;;;;;;;11.70;80.60;;;;;;5021744;28;19913;-68
2021/11/02 14:30:32;;;;;;;;;;;11.60;79.40;;;;;;5017135;28;19913;-68
2021/11/02 14:33:01;;;;;;;;;;;11.60;80.50;;;;;;5036786;28;19992;-67
2021/11/02 14:35:35;;;;;;;;;;;11.60;80.80;;;;;;5024219;28;19912;-67
2021/11/02 14:38:04;;;;;;;;;;;11.50;80.30;;;;;;5022291;28;20433;-67
2021/11/02 14:40:40;;;;;;;;;;;11.20;81.20;;;;;;5029124;28;19912;-68
2021/11/02 14:43:15;;;;;;;;;;;11.00;81.70;;;;;;5028866;28;19929;-68
2021/11/02 14:45:44;;;;;;;;;;;10.70;82.90;;;;;;5024202;28;20012;-68
2021/11/02 14:48:24;;;;;;;;;;;10.50;83.60;;;;;;5028527;28;19945;-68
2021/11/02 14:50:51;;;;;;;;;;;10.40;84.60;;;;;;5023689;28;19909;-68
2021/11/02 14:53:29;;;;;;;;;;;10.40;85.50;;;;;;5028995;28;19909;-68
2021/11/02 14:55:56;;;;;;;;;;;10.30;86.60;;;;;;5037539;28;20409;-68
2021/11/02 14:58:40;;;;;;;;;;;10.40;86.20;;;;;;5038472;28;19913;-68
2021/11/02 15:01:24;;;;;;;;;;;10.40;84.60;;;;;;5030386;28;19924;-68
2021/11/02 15:04:11;;;;;;;;;;;10.40;85.40;;;;;;5026820;28;19915;-68
2021/11/02 15:06:38;;;;;;;;;;;10.50;85.30;;;;;;5037825;28;20001;-68
2021/11/02 15:09:05;;;;;;;;;;;10.40;84.70;;;;;;5022782;28;19990;-68
2021/11/02 15:11:31;;;;;;;;;;;10.40;86.20;;;;;;5035736;28;19912;-68
2021/11/02 15:13:58;;;;;;;;;;;10.50;84.80;;;;;;5036958;28;19909;-68
2021/11/02 15:16:24;;;;;;;;;;;10.40;86.30;;;;;;5029377;28;19916;-68
2021/11/02 15:18:51;;;;;;;;;;;10.30;85.30;;;;;;5031374;28;19913;-68
2021/11/02 15:21:26;;;;;;;;;;;10.30;84.80;;;;;;5024543;28;19913;-68
2021/11/02 15:23:52;;;;;;;;;;;10.20;85.70;;;;;;5033308;28;19920;-68
2021/11/02 15:26:18;;;;;;;;;;;10.00;86.50;;;;;;5023689;28;19928;-68
2021/11/02 15:28:48;;;;;;;;;;;9.90;87.20;;;;;;5024912;28;19978;-68
2021/11/02 15:31:15;;;;;;;;;;;9.90;88.40;;;;;;5026678;28;19913;-68
2021/11/02 15:33:42;;;;;;;;;;;9.80;88.00;;;;;;5035396;28;20317;-69
2021/11/02 15:36:21;;;;;;;;;;;9.70;87.90;;;;;;5028630;28;19925;-68
2021/11/02 15:38:56;;;;;;;;;;;9.70;88.30;;;;;;5024308;28;19990;-68
2021/11/02 15:41:23;;;;;;;;;;;9.60;89.80;;;;;;5023763;28;19917;-68
2021/11/02 15:43:54;;;;;;;;;;;9.50;89.60;;;;;;5027305;28;19938;-68
2021/11/02 15:46:22;;;;;;;;;;;9.40;90.20;;;;;;5033004;28;20377;-67
2021/11/02 15:48:48;;;;;;;;;;;9.30;90.00;;;;;;5022938;28;20009;-68
2021/11/02 15:51:15;;;;;;;;;;;9.30;90.40;;;;;;5030846;28;20050;-68
2021/11/02 15:53:41;;;;;;;;;;;9.20;90.90;;;;;;5026500;28;19960;-68
2021/11/02 15:56:07;;;;;;;;;;;9.10;90.40;;;;;;5034383;28;19916;-68
2021/11/02 15:58:35;;;;;;;;;;;9.10;90.50;;;;;;5033418;28;19909;-68
2021/11/02 16:01:01;;;;;;;;;;;9.00;90.90;;;;;;5029021;28;20067;-68
2021/11/02 16:03:31;;;;;;;;;;;9.00;91.20;;;;;;5035954;28;19916;-68
2021/11/02 16:05:57;;;;;;;;;;;8.90;91.40;;;;;;5026818;28;19916;-68
2021/11/02 16:08:23;;;;;;;;;;;8.90;91.90;;;;;;5028773;28;19987;-68
2021/11/02 16:10:49;;;;;;;;;;;8.90;91.90;;;;;;5026445;28;20585;-68
2021/11/02 16:13:15;;;;;;;;;;;8.90;92.10;;;;;;5038902;28;20324;-69
2021/11/02 16:15:42;;;;;;;;;;;8.80;92.20;;;;;;5037998;28;19916;-68
2021/11/02 16:18:24;;;;;;;;;;;8.70;92.40;;;;;;5040095;28;19917;-69
2021/11/02 16:20:54;;;;;;;;;;;8.70;92.70;;;;;;5027910;28;20384;-69
2021/11/02 16:23:22;;;;;;;;;;;8.60;92.90;;;;;;5036006;28;19927;-69
2021/11/02 16:25:49;;;;;;;;;;;8.60;93.00;;;;;;5033683;28;19925;-69
2021/11/02 16:28:19;;;;;;;;;;;8.50;92.80;;;;;;5019263;28;20019;-68
2021/11/02 16:30:46;;;;;;;;;;;8.50;93.10;;;;;;5016971;28;19914;-68
2021/11/02 16:33:12;;;;;;;;;;;8.40;93.00;;;;;;5041659;28;19917;-69
2021/11/02 16:35:48;;;;;;;;;;;8.40;92.80;;;;;;5025341;28;19937;-68
2021/11/02 16:38:26;;;;;;;;;;;8.30;93.30;;;;;;5025263;28;19929;-69
2021/11/02 16:40:54;;;;;;;;;;;8.30;93.90;;;;;;5024225;28;19920;-69
2021/11/02 16:43:28;;;;;;;;;;;8.20;94.10;;;;;;5025923;28;19908;-69
2021/11/02 16:45:54;;;;;;;;;;;8.20;94.20;;;;;;5023510;28;19919;-69
2021/11/02 16:48:31;;;;;;;;;;;8.20;94.30;;;;;;5026825;28;19992;-68
2021/11/02 16:50:57;;;;;;;;;;;8.10;94.60;;;;;;5035096;28;20192;-69
2021/11/02 16:53:24;;;;;;;;;;;8.10;94.80;;;;;;5034773;28;19956;-67
2021/11/02 16:55:50;;;;;;;;;;;8.10;95.00;;;;;;5035098;28;19913;-67
2021/11/02 16:58:19;;;;;;;;;;;8.10;94.80;;;;;;5037886;28;19915;-67
2021/11/02 17:00:45;;;;;;;;;;;8.00;95.20;;;;;;5024660;28;20354;-68
2021/11/02 17:03:13;;;;;;;;;;;8.00;95.20;;;;;;5025031;28;20198;-68
2021/11/02 17:05:40;;;;;;;;;;;8.00;95.30;;;;;;5038078;28;19935;-68
2021/11/02 17:08:09;;;;;;;;;;;8.00;95.50;;;;;;5027847;28;19914;-68
2021/11/02 17:10:49;;;;;;;;;;;7.90;95.60;;;;;;5029790;28;19912;-68
2021/11/02 17:13:14;;;;;;;;;;;7.90;95.90;;;;;;5026526;28;19923;-68
2021/11/02 17:15:53;;;;;;;;;;;7.90;95.80;;;;;;5030447;28;20277;-68
2021/11/02 17:18:24;;;;;;;;;;;7.80;96.10;;;;;;5020632;28;19933;-68
2021/11/02 17:21:00;;;;;;;;;;;7.80;96.40;;;;;;5020412;28;20297;-69
2021/11/02 17:23:26;;;;;;;;;;;7.70;96.30;;;;;;5025603;28;20003;-68
2021/11/02 17:25:52;;;;;;;;;;;7.70;96.80;;;;;;5025384;28;20334;-68
2021/11/02 17:28:19;;;;;;;;;;;7.70;97.10;;;;;;5027789;28;19917;-69
2021/11/02 17:30:45;;;;;;;;;;;7.70;97.30;;;;;;5027399;28;19917;-68
2021/11/02 17:33:10;;;;;;;;;;;7.70;97.50;;;;;;5035971;28;19916;-69
2021/11/02 17:35:36;;;;;;;;;;;7.70;98.10;;;;;;5023966;28;19913;-68
2021/11/02 17:38:02;;;;;;;;;;;7.70;98.30;;;;;;5018248;28;19917;-69
2021/11/02 17:40:28;;;;;;;;;;;7.70;98.40;;;;;;5034957;28;20952;-69
2021/11/02 17:42:56;;;;;;;;;;;7.70;98.60;;;;;;5017292;28;19917;-69
2021/11/02 17:45:22;;;;;;;;;;;7.70;98.30;;;;;;5020976;28;20023;-69
2021/11/02 17:47:49;;;;;;;;;;;7.70;98.30;;;;;;5018909;28;19913;-68
2021/11/02 17:50:16;;;;;;;;;;;7.70;98.50;;;;;;5018423;28;19913;-66
2021/11/02 17:52:41;;;;;;;;;;;7.70;98.30;;;;;;5020900;28;20263;-68
2021/11/02 17:55:08;;;;;;;;;;;7.60;98.20;;;;;;5020126;28;19971;-68
2021/11/02 17:57:43;;;;;;;;;;;7.60;97.90;;;;;;5015519;28;19909;-68
2021/11/02 18:00:11;;;;;;;;;;;7.50;98.50;;;;;;5019286;28;19909;-68
2021/11/02 18:02:37;;;;;;;;;;;7.50;98.70;;;;;;5000311;28;19918;-68
2021/11/02 18:05:03;;;;;;;;;;;7.50;98.70;;;;;;4999272;28;20158;-69
2021/11/02 18:07:29;;;;;;;;;;;7.40;98.90;;;;;;5023923;28;20044;-69
2021/11/02 18:09:55;;;;;;;;;;;7.40;98.80;;;;;;4995673;28;20543;-69
2021/11/02 18:12:22;;;;;;;;;;;7.40;99.10;;;;;;4998959;28;19917;-69
2021/11/02 18:14:48;;;;;;;;;;;7.20;98.80;;;;;;4997955;28;20564;-69
2021/11/02 18:17:15;;;;;;;;;;;7.30;98.90;;;;;;5001663;28;20004;-69
2021/11/02 18:19:40;;;;;;;;;;;7.20;99.20;;;;;;4999497;28;19920;-68
2021/11/02 18:22:06;;;;;;;;;;;7.00;99.20;;;;;;5001349;28;19910;-69
2021/11/02 18:24:35;;;;;;;;;;;7.00;99.30;;;;;;5000967;28;19921;-68
2021/11/02 18:27:00;;;;;;;;;;;7.00;99.50;;;;;;4999575;28;19936;-69
2021/11/02 18:29:26;;;;;;;;;;;6.90;99.40;;;;;;4999973;28;19917;-68
2021/11/02 18:31:52;;;;;;;;;;;6.80;99.50;;;;;;5011803;28;20440;-69
2021/11/02 18:34:17;;;;;;;;;;;6.80;99.80;;;;;;5023912;28;19930;-69
2021/11/02 18:36:46;;;;;;;;;;;6.80;99.70;;;;;;5020620;28;19920;-68
2021/11/02 18:39:11;;;;;;;;;;;6.80;99.90;;;;;;5020121;28;19948;-69
2021/11/02 18:41:37;;;;;;;;;;;6.80;99.70;;;;;;5020588;28;20448;-69
2021/11/02 18:44:03;;;;;;;;;;;6.80;99.60;;;;;;5016830;28;19921;-69
2021/11/02 18:46:28;;;;;;;;;;;6.80;99.80;;;;;;5036393;28;20004;-69
2021/11/02 18:48:55;;;;;;;;;;;6.80;99.00;;;;;;5020653;28;20374;-69
2021/11/02 18:51:20;;;;;;;;;;;6.80;98.60;;;;;;5033839;28;19913;-69
2021/11/02 18:53:46;;;;;;;;;;;6.70;96.80;;;;;;5050224;28;20018;-69
2021/11/02 18:56:11;;;;;;;;;;;6.60;97.90;;;;;;5021916;28;19956;-69
2021/11/02 18:58:37;;;;;;;;;;;6.50;97.10;;;;;;5022270;28;20189;-69
2021/11/02 19:01:04;;;;;;;;;;;6.40;98.10;;;;;;5003294;28;20485;-69
2021/11/02 19:03:29;;;;;;;;;;;6.40;98.80;;;;;;4996061;28;19924;-68
2021/11/02 19:05:55;;;;;;;;;;;6.20;99.80;;;;;;5025545;28;19922;-69